sensor_id;sensor_type;location;lat;lon;timestamp;pressure;altitude;pressure_sealevel;temperature;humidity
20444;BME280;10381;53.730;10.010;2022-09-03T00:06:17;101401.88;;;13.53;100.00
20444;BME280;10381;53.730;10.010;2022-09-03T00:10:50;101398.22;;;13.35;100.00
20444;BME280;10381;53.730;10.010;2022-09-03T00:15:06;101392.16;;;13.23;100.00
20444;BME280;10381;53.730;10.010;2022-09-03T00:19:08;101392.16;;;13.13;100.00
20444;BME280;10381;53.730;10.010;2022-09-03T00:23:22;101395.63;;;13.04;100.00
20444;BME280;10381;53.730;10.010;2022-09-03T00:27:27;101390.53;;;12.91;100.00
20444;BME280;10381;53.730;10.010;2022-09-03T00:31:32;101395.31;;;12.88;100.00
20444;BME280;10381;53.730;10.010;2022-09-03T00:36:01;101391.78;;;12.77;100.00
20444;BME280;10381;53.730;10.010;2022-09-03T00:40:04;101393.28;;;12.70;100.00
20444;BME280;10381;53.730;10.010;2022-09-03T00:44:40;101390.44;;;12.62;100.00
20444;BME280;10381;53.730;10.010;2022-09-03T00:49:03;101391.41;;;12.51;100.00
20444;BME280;10381;53.730;10.010;2022-09-03T00:53:25;101387.72;;;12.43;100.00
20444;BME280;10381;53.730;10.010;2022-09-03T01:06:23;101388.53;;;12.43;100.00
20444;BME280;10381;53.730;10.010;2022-09-03T01:10:34;101390.00;;;12.57;100.00
20444;BME280;10381;53.730;10.010;2022-09-03T01:19:17;101393.91;;;12.93;100.00
20444;BME280;10381;53.730;10.010;2022-09-03T01:23:40;101386.38;;;13.08;100.00
20444;BME280;10381;53.730;10.010;2022-09-03T01:36:52;101391.78;;;13.47;100.00
20444;BME280;10381;53.730;10.010;2022-09-03T01:45:57;101378.91;;;13.33;100.00
20444;BME280;10381;53.730;10.010;2022-09-03T01:54:51;101376.03;;;13.15;100.00
20444;BME280;10381;53.730;10.010;2022-09-03T01:59:05;101375.72;;;13.08;100.00
20444;BME280;10381;53.730;10.010;2022-09-03T02:03:09;101377.97;;;13.03;100.00
20444;BME280;10381;53.730;10.010;2022-09-03T02:07:11;101374.06;;;13.17;100.00
20444;BME280;10381;53.730;10.010;2022-09-03T02:11:11;101379.66;;;13.04;100.00
20444;BME280;10381;53.730;10.010;2022-09-03T02:15:15;101374.47;;;13.03;100.00
20444;BME280;10381;53.730;10.010;2022-09-03T02:19:17;101371.78;;;12.93;100.00
20444;BME280;10381;53.730;10.010;2022-09-03T02:23:18;101368.31;;;13.02;100.00
20444;BME280;10381;53.730;10.010;2022-09-03T02:27:18;101378.38;;;12.98;100.00
20444;BME280;10381;53.730;10.010;2022-09-03T02:31:19;101368.00;;;12.86;100.00
20444;BME280;10381;53.730;10.010;2022-09-03T02:35:19;101366.56;;;12.72;100.00
20444;BME280;10381;53.730;10.010;2022-09-03T02:39:19;101370.16;;;12.61;100.00
20444;BME280;10381;53.730;10.010;2022-09-03T02:43:25;101366.91;;;12.57;100.00
20444;BME280;10381;53.730;10.010;2022-09-03T02:47:30;101366.88;;;12.48;100.00
20444;BME280;10381;53.730;10.010;2022-09-03T02:51:34;101379.31;;;12.38;100.00
20444;BME280;10381;53.730;10.010;2022-09-03T02:55:35;101380.53;;;12.33;100.00
20444;BME280;10381;53.730;10.010;2022-09-03T02:59:35;101370.72;;;12.24;100.00
20444;BME280;10381;53.730;10.010;2022-09-03T03:03:36;101368.97;;;12.13;100.00
20444;BME280;10381;53.730;10.010;2022-09-03T03:07:38;101374.56;;;12.10;100.00
20444;BME280;10381;53.730;10.010;2022-09-03T03:11:39;101364.75;;;12.11;100.00
20444;BME280;10381;53.730;10.010;2022-09-03T03:15:40;101367.88;;;12.16;100.00
20444;BME280;10381;53.730;10.010;2022-09-03T03:19:41;101370.19;;;12.09;100.00
20444;BME280;10381;53.730;10.010;2022-09-03T03:23:42;101376.63;;;12.07;100.00
20444;BME280;10381;53.730;10.010;2022-09-03T03:27:42;101375.00;;;11.94;100.00
20444;BME280;10381;53.730;10.010;2022-09-03T03:31:43;101369.38;;;11.88;100.00
20444;BME280;10381;53.730;10.010;2022-09-03T03:35:43;101370.00;;;11.80;100.00
20444;BME280;10381;53.730;10.010;2022-09-03T03:39:43;101374.72;;;11.77;100.00
20444;BME280;10381;53.730;10.010;2022-09-03T03:43:44;101371.41;;;11.63;100.00
20444;BME280;10381;53.730;10.010;2022-09-03T03:47:44;101374.28;;;11.71;100.00
20444;BME280;10381;53.730;10.010;2022-09-03T03:51:45;101377.31;;;11.67;100.00
20444;BME280;10381;53.730;10.010;2022-09-03T03:55:55;101373.47;;;11.81;100.00
20444;BME280;10381;53.730;10.010;2022-09-03T03:59:56;101380.75;;;11.79;100.00
20444;BME280;10381;53.730;10.010;2022-09-03T04:03:57;101389.22;;;11.72;100.00
20444;BME280;10381;53.730;10.010;2022-09-03T04:08:00;101390.69;;;11.65;100.00
20444;BME280;10381;53.730;10.010;2022-09-03T04:12:01;101383.47;;;11.67;100.00
20444;BME280;10381;53.730;10.010;2022-09-03T04:16:06;101388.22;;;11.52;100.00
20444;BME280;10381;53.730;10.010;2022-09-03T04:20:08;101396.84;;;11.34;100.00
20444;BME280;10381;53.730;10.010;2022-09-03T04:24:09;101393.38;;;11.33;100.00
20444;BME280;10381;53.730;10.010;2022-09-03T04:28:09;101387.78;;;11.47;100.00
20444;BME280;10381;53.730;10.010;2022-09-03T04:32:09;101383.22;;;11.59;100.00
20444;BME280;10381;53.730;10.010;2022-09-03T04:36:30;101384.28;;;11.68;100.00
20444;BME280;10381;53.730;10.010;2022-09-03T04:40:30;101384.56;;;11.65;100.00
20444;BME280;10381;53.730;10.010;2022-09-03T04:44:31;101378.78;;;11.60;100.00
20444;BME280;10381;53.730;10.010;2022-09-03T04:48:32;101384.13;;;11.48;100.00
20444;BME280;10381;53.730;10.010;2022-09-03T04:52:33;101389.78;;;11.55;100.00
20444;BME280;10381;53.730;10.010;2022-09-03T04:56:34;101389.09;;;11.74;100.00
20444;BME280;10381;53.730;10.010;2022-09-03T05:00:35;101393.75;;;11.93;100.00
20444;BME280;10381;53.730;10.010;2022-09-03T05:04:36;101400.50;;;12.07;100.00
20444;BME280;10381;53.730;10.010;2022-09-03T05:08:36;101406.22;;;12.23;100.00
20444;BME280;10381;53.730;10.010;2022-09-03T05:12:37;101405.63;;;12.50;100.00
20444;BME280;10381;53.730;10.010;2022-09-03T05:16:37;101412.13;;;12.98;100.00
20444;BME280;10381;53.730;10.010;2022-09-03T05:20:38;101410.84;;;13.42;100.00
20444;BME280;10381;53.730;10.010;2022-09-03T05:24:38;101407.91;;;13.55;100.00
20444;BME280;10381;53.730;10.010;2022-09-03T05:28:40;101407.34;;;13.81;100.00
20444;BME280;10381;53.730;10.010;2022-09-03T05:32:41;101400.53;;;14.16;100.00
20444;BME280;10381;53.730;10.010;2022-09-03T05:36:41;101393.94;;;14.20;100.00
20444;BME280;10381;53.730;10.010;2022-09-03T05:40:42;101389.88;;;14.16;100.00
20444;BME280;10381;53.730;10.010;2022-09-03T05:44:42;101388.28;;;14.33;100.00
20444;BME280;10381;53.730;10.010;2022-09-03T05:48:43;101394.34;;;14.72;100.00
20444;BME280;10381;53.730;10.010;2022-09-03T05:52:43;101406.97;;;15.25;100.00
20444;BME280;10381;53.730;10.010;2022-09-03T05:56:44;101407.34;;;15.84;100.00
20444;BME280;10381;53.730;10.010;2022-09-03T06:00:44;101416.38;;;15.83;100.00
20444;BME280;10381;53.730;10.010;2022-09-03T06:04:44;101410.94;;;16.45;100.00
20444;BME280;10381;53.730;10.010;2022-09-03T06:08:47;101409.47;;;16.25;100.00
20444;BME280;10381;53.730;10.010;2022-09-03T06:12:50;101413.25;;;15.88;100.00
20444;BME280;10381;53.730;10.010;2022-09-03T06:16:50;101408.50;;;15.82;100.00
20444;BME280;10381;53.730;10.010;2022-09-03T06:20:59;101410.94;;;15.57;100.00
20444;BME280;10381;53.730;10.010;2022-09-03T06:24:59;101407.19;;;15.50;100.00
20444;BME280;10381;53.730;10.010;2022-09-03T06:29:00;101399.09;;;15.24;100.00
20444;BME280;10381;53.730;10.010;2022-09-03T06:33:00;101392.91;;;15.23;100.00
20444;BME280;10381;53.730;10.010;2022-09-03T06:37:00;101394.16;;;15.47;100.00
20444;BME280;10381;53.730;10.010;2022-09-03T06:41:04;101409.09;;;15.58;100.00
20444;BME280;10381;53.730;10.010;2022-09-03T06:45:06;101409.03;;;15.85;100.00
20444;BME280;10381;53.730;10.010;2022-09-03T06:49:06;101415.34;;;16.02;100.00
20444;BME280;10381;53.730;10.010;2022-09-03T06:53:07;101420.06;;;16.08;100.00
20444;BME280;10381;53.730;10.010;2022-09-03T06:57:08;101412.94;;;16.17;100.00
20444;BME280;10381;53.730;10.010;2022-09-03T07:05:08;101418.09;;;16.45;100.00
20444;BME280;10381;53.730;10.010;2022-09-03T07:09:10;101420.88;;;16.61;100.00
20444;BME280;10381;53.730;10.010;2022-09-03T07:13:11;101414.53;;;16.62;100.00
20444;BME280;10381;53.730;10.010;2022-09-03T07:17:12;101423.69;;;16.59;100.00
20444;BME280;10381;53.730;10.010;2022-09-03T07:21:18;101409.38;;;16.69;100.00
20444;BME280;10381;53.730;10.010;2022-09-03T07:25:18;101419.69;;;16.90;100.00
20444;BME280;10381;53.730;10.010;2022-09-03T07:29:19;101414.06;;;17.09;100.00
20444;BME280;10381;53.730;10.010;2022-09-03T07:33:20;101411.13;;;17.37;100.00
20444;BME280;10381;53.730;10.010;2022-09-03T07:37:20;101419.31;;;17.43;100.00
20444;BME280;10381;53.730;10.010;2022-09-03T07:41:20;101427.72;;;17.57;100.00
20444;BME280;10381;53.730;10.010;2022-09-03T07:45:22;101413.47;;;17.48;100.00
20444;BME280;10381;53.730;10.010;2022-09-03T07:49:23;101419.69;;;17.65;100.00
20444;BME280;10381;53.730;10.010;2022-09-03T07:53:23;101427.41;;;17.76;100.00
20444;BME280;10381;53.730;10.010;2022-09-03T07:57:23;101417.03;;;17.73;100.00
20444;BME280;10381;53.730;10.010;2022-09-03T08:01:25;101427.13;;;17.87;100.00
20444;BME280;10381;53.730;10.010;2022-09-03T08:05:27;101411.97;;;18.27;100.00
20444;BME280;10381;53.730;10.010;2022-09-03T08:09:27;101423.03;;;18.24;100.00
20444;BME280;10381;53.730;10.010;2022-09-03T08:13:28;101422.22;;;18.16;100.00
20444;BME280;10381;53.730;10.010;2022-09-03T08:17:28;101415.84;;;18.33;100.00
20444;BME280;10381;53.730;10.010;2022-09-03T08:21:28;101415.69;;;18.74;100.00
20444;BME280;10381;53.730;10.010;2022-09-03T08:25:28;101404.28;;;18.72;100.00
20444;BME280;10381;53.730;10.010;2022-09-03T08:29:29;101414.81;;;18.90;100.00
20444;BME280;10381;53.730;10.010;2022-09-03T08:33:29;101415.69;;;18.82;100.00
20444;BME280;10381;53.730;10.010;2022-09-03T08:37:38;101410.91;;;19.01;100.00
20444;BME280;10381;53.730;10.010;2022-09-03T08:41:59;101413.44;;;19.25;100.00
20444;BME280;10381;53.730;10.010;2022-09-03T08:46:02;101413.91;;;19.06;100.00
20444;BME280;10381;53.730;10.010;2022-09-03T08:50:22;101414.88;;;19.13;100.00
20444;BME280;10381;53.730;10.010;2022-09-03T08:54:28;101405.09;;;19.43;100.00
20444;BME280;10381;53.730;10.010;2022-09-03T08:58:32;101406.97;;;19.11;100.00
20444;BME280;10381;53.730;10.010;2022-09-03T09:02:45;101404.88;;;18.99;100.00
20444;BME280;10381;53.730;10.010;2022-09-03T09:15:47;101413.50;;;18.22;100.00
20444;BME280;10381;53.730;10.010;2022-09-03T09:24:26;101410.69;;;19.10;100.00
20444;BME280;10381;53.730;10.010;2022-09-03T09:28:35;101405.09;;;19.43;100.00
20444;BME280;10381;53.730;10.010;2022-09-03T09:32:36;101418.53;;;19.43;100.00
20444;BME280;10381;53.730;10.010;2022-09-03T09:36:52;101409.13;;;19.70;98.86
20444;BME280;10381;53.730;10.010;2022-09-03T09:40:52;101411.63;;;19.95;98.41
20444;BME280;10381;53.730;10.010;2022-09-03T09:44:56;101401.81;;;20.17;96.03
20444;BME280;10381;53.730;10.010;2022-09-03T09:48:57;101403.38;;;20.11;94.11
20444;BME280;10381;53.730;10.010;2022-09-03T09:53:02;101400.88;;;20.10;95.92
20444;BME280;10381;53.730;10.010;2022-09-03T09:57:14;101400.22;;;20.22;93.40
20444;BME280;10381;53.730;10.010;2022-09-03T10:01:21;101386.81;;;20.37;91.82
20444;BME280;10381;53.730;10.010;2022-09-03T10:05:27;101390.13;;;20.39;86.51
20444;BME280;10381;53.730;10.010;2022-09-03T10:09:31;101378.63;;;20.46;86.24
20444;BME280;10381;53.730;10.010;2022-09-03T10:13:41;101382.41;;;20.51;85.54
20444;BME280;10381;53.730;10.010;2022-09-03T10:17:59;101380.31;;;20.76;84.15
20444;BME280;10381;53.730;10.010;2022-09-03T10:22:15;101373.44;;;21.10;82.25
20444;BME280;10381;53.730;10.010;2022-09-03T10:26:21;101376.72;;;21.05;79.87
20444;BME280;10381;53.730;10.010;2022-09-03T10:30:31;101358.97;;;20.60;79.21
20444;BME280;10381;53.730;10.010;2022-09-03T10:43:52;101359.78;;;20.75;69.09
20444;BME280;10381;53.730;10.010;2022-09-03T10:56:31;101361.75;;;22.52;67.46
20444;BME280;10381;53.730;10.010;2022-09-03T11:00:40;101359.53;;;21.49;66.79
20444;BME280;10381;53.730;10.010;2022-09-03T11:04:59;101358.78;;;22.12;63.86
20444;BME280;10381;53.730;10.010;2022-09-03T11:13:16;101349.47;;;22.56;62.10
20444;BME280;10381;53.730;10.010;2022-09-03T11:17:27;101366.13;;;22.60;60.21
20444;BME280;10381;53.730;10.010;2022-09-03T11:21:30;101364.50;;;23.27;58.91
20444;BME280;10381;53.730;10.010;2022-09-03T11:25:35;101353.59;;;22.10;59.50
20444;BME280;10381;53.730;10.010;2022-09-03T11:30:04;101357.75;;;21.57;60.88
20444;BME280;10381;53.730;10.010;2022-09-03T11:34:14;101338.94;;;21.91;59.96
20444;BME280;10381;53.730;10.010;2022-09-03T11:42:38;101338.72;;;21.93;62.84
20444;BME280;10381;53.730;10.010;2022-09-03T11:46:52;101332.97;;;21.03;62.09
20444;BME280;10381;53.730;10.010;2022-09-03T11:50:54;101326.44;;;21.13;61.24
20444;BME280;10381;53.730;10.010;2022-09-03T11:54:54;101321.97;;;20.83;62.20
20444;BME280;10381;53.730;10.010;2022-09-03T12:03:16;101318.25;;;21.70;59.90
20444;BME280;10381;53.730;10.010;2022-09-03T12:25:12;101316.28;;;21.58;61.90
20444;BME280;10381;53.730;10.010;2022-09-03T12:29:24;101311.25;;;21.33;60.07
20444;BME280;10381;53.730;10.010;2022-09-03T12:33:25;101309.03;;;21.15;60.58
20444;BME280;10381;53.730;10.010;2022-09-03T12:37:25;101310.13;;;21.42;58.56
20444;BME280;10381;53.730;10.010;2022-09-03T12:41:32;101305.88;;;21.83;57.00
20444;BME280;10381;53.730;10.010;2022-09-03T12:45:44;101296.75;;;21.84;56.39
20444;BME280;10381;53.730;10.010;2022-09-03T12:49:47;101301.19;;;21.63;57.30
20444;BME280;10381;53.730;10.010;2022-09-03T12:53:49;101297.88;;;20.97;58.70
20444;BME280;10381;53.730;10.010;2022-09-03T12:57:55;101295.72;;;21.07;58.32
20444;BME280;10381;53.730;10.010;2022-09-03T13:02:01;101289.75;;;21.89;57.51
20444;BME280;10381;53.730;10.010;2022-09-03T13:06:09;101296.66;;;21.70;56.84
20444;BME280;10381;53.730;10.010;2022-09-03T13:10:32;101284.59;;;21.95;56.21
20444;BME280;10381;53.730;10.010;2022-09-03T13:14:45;101289.81;;;22.38;54.92
20444;BME280;10381;53.730;10.010;2022-09-03T13:39:52;101277.63;;;22.55;52.15
20444;BME280;10381;53.730;10.010;2022-09-03T13:48:11;101275.00;;;22.27;52.11
20444;BME280;10381;53.730;10.010;2022-09-03T13:56:53;101282.84;;;22.57;52.81
20444;BME280;10381;53.730;10.010;2022-09-03T14:05:04;101279.84;;;23.13;52.30
20444;BME280;10381;53.730;10.010;2022-09-03T14:09:32;101275.31;;;23.33;50.72
20444;BME280;10381;53.730;10.010;2022-09-03T14:13:47;101274.03;;;23.63;50.54
20444;BME280;10381;53.730;10.010;2022-09-03T14:22:28;101259.78;;;24.07;49.93
20444;BME280;10381;53.730;10.010;2022-09-03T14:26:33;101271.72;;;23.66;50.84
20444;BME280;10381;53.730;10.010;2022-09-03T14:35:32;101259.47;;;23.44;49.48
20444;BME280;10381;53.730;10.010;2022-09-03T14:44:00;101254.19;;;23.95;48.79
20444;BME280;10381;53.730;10.010;2022-09-03T15:01:18;101257.38;;;22.92;49.22
20444;BME280;10381;53.730;10.010;2022-09-03T15:05:43;101246.09;;;22.82;49.16
20444;BME280;10381;53.730;10.010;2022-09-03T15:14:09;101253.63;;;23.80;48.97
20444;BME280;10381;53.730;10.010;2022-09-03T15:18:45;101254.91;;;23.04;48.95
20444;BME280;10381;53.730;10.010;2022-09-03T15:23:08;101250.69;;;22.88;49.09
20444;BME280;10381;53.730;10.010;2022-09-03T15:31:40;101239.13;;;22.33;49.23
20444;BME280;10381;53.730;10.010;2022-09-03T15:44:47;101246.03;;;22.42;49.17
20444;BME280;10381;53.730;10.010;2022-09-03T15:48:55;101254.03;;;22.90;48.67
20444;BME280;10381;53.730;10.010;2022-09-03T15:53:14;101257.66;;;24.22;47.06
20444;BME280;10381;53.730;10.010;2022-09-03T15:57:34;101272.09;;;25.68;44.52
20444;BME280;10381;53.730;10.010;2022-09-03T16:06:04;101263.28;;;26.65;41.99
20444;BME280;10381;53.730;10.010;2022-09-03T16:10:09;101283.53;;;26.32;41.54
20444;BME280;10381;53.730;10.010;2022-09-03T16:14:27;101283.97;;;26.48;41.36
20444;BME280;10381;53.730;10.010;2022-09-03T16:18:39;101292.94;;;27.62;40.23
20444;BME280;10381;53.730;10.010;2022-09-03T16:22:48;101272.09;;;25.68;43.74
20444;BME280;10381;53.730;10.010;2022-09-03T16:26:56;101267.56;;;24.42;45.97
20444;BME280;10381;53.730;10.010;2022-09-03T16:35:45;101259.00;;;21.06;52.62
20444;BME280;10381;53.730;10.010;2022-09-03T16:40:14;101258.16;;;20.48;55.73
20444;BME280;10381;53.730;10.010;2022-09-03T16:44:48;101260.16;;;20.24;56.48
20444;BME280;10381;53.730;10.010;2022-09-03T16:53:22;101255.47;;;19.96;58.13
20444;BME280;10381;53.730;10.010;2022-09-03T16:57:59;101262.13;;;19.86;58.84
20444;BME280;10381;53.730;10.010;2022-09-03T17:06:51;101252.06;;;19.65;60.17
20444;BME280;10381;53.730;10.010;2022-09-03T17:15:31;101261.41;;;19.39;61.21
20444;BME280;10381;53.730;10.010;2022-09-03T17:19:49;101265.44;;;19.35;61.69
20444;BME280;10381;53.730;10.010;2022-09-03T17:33:29;101259.91;;;18.90;64.36
20444;BME280;10381;53.730;10.010;2022-09-03T17:41:46;101261.97;;;18.57;66.50
20444;BME280;10381;53.730;10.010;2022-09-03T17:46:10;101272.25;;;18.45;66.70
20444;BME280;10381;53.730;10.010;2022-09-03T17:50:20;101274.81;;;18.39;66.82
20444;BME280;10381;53.730;10.010;2022-09-03T17:54:40;101287.66;;;18.12;68.07
20444;BME280;10381;53.730;10.010;2022-09-03T18:03:18;101300.09;;;17.72;69.52
20444;BME280;10381;53.730;10.010;2022-09-03T18:07:57;101301.81;;;17.57;70.74
20444;BME280;10381;53.730;10.010;2022-09-03T18:12:10;101311.03;;;17.38;71.81
20444;BME280;10381;53.730;10.010;2022-09-03T18:16:20;101313.72;;;17.30;72.52
20444;BME280;10381;53.730;10.010;2022-09-03T18:20:24;101318.53;;;17.10;73.43
20444;BME280;10381;53.730;10.010;2022-09-03T18:24:51;101321.16;;;16.85;74.95
20444;BME280;10381;53.730;10.010;2022-09-03T18:29:16;101327.44;;;16.68;76.42
20444;BME280;10381;53.730;10.010;2022-09-03T18:33:37;101334.03;;;16.47;78.10
20444;BME280;10381;53.730;10.010;2022-09-03T18:37:56;101335.31;;;16.35;79.81
20444;BME280;10381;53.730;10.010;2022-09-03T18:42:27;101339.25;;;16.14;82.13
20444;BME280;10381;53.730;10.010;2022-09-03T18:52:15;101353.44;;;15.89;86.28
20444;BME280;10381;53.730;10.010;2022-09-03T18:56:49;101358.38;;;15.75;88.98
20444;BME280;10381;53.730;10.010;2022-09-03T19:01:31;101352.78;;;15.69;90.65
20444;BME280;10381;53.730;10.010;2022-09-03T19:10:24;101353.09;;;15.48;94.99
20444;BME280;10381;53.730;10.010;2022-09-03T19:15:00;101362.34;;;15.36;97.70
20444;BME280;10381;53.730;10.010;2022-09-03T19:24:07;101359.88;;;15.06;100.00
20444;BME280;10381;53.730;10.010;2022-09-03T19:28:30;101362.09;;;15.11;100.00
20444;BME280;10381;53.730;10.010;2022-09-03T19:33:10;101361.31;;;15.01;100.00
20444;BME280;10381;53.730;10.010;2022-09-03T19:37:37;101360.25;;;14.94;100.00
20444;BME280;10381;53.730;10.010;2022-09-03T19:42:02;101364.34;;;14.88;100.00
20444;BME280;10381;53.730;10.010;2022-09-03T19:46:36;101377.66;;;14.70;100.00
20444;BME280;10381;53.730;10.010;2022-09-03T19:51:20;101365.34;;;14.59;100.00
20444;BME280;10381;53.730;10.010;2022-09-03T19:55:44;101368.50;;;14.73;100.00
20444;BME280;10381;53.730;10.010;2022-09-03T20:00:05;101373.28;;;14.69;100.00
20444;BME280;10381;53.730;10.010;2022-09-03T20:04:30;101374.16;;;14.60;100.00
20444;BME280;10381;53.730;10.010;2022-09-03T20:08:50;101373.78;;;14.55;100.00
20444;BME280;10381;53.730;10.010;2022-09-03T20:13:11;101378.72;;;14.40;100.00
20444;BME280;10381;53.730;10.010;2022-09-03T20:17:30;101382.38;;;14.39;100.00
20444;BME280;10381;53.730;10.010;2022-09-03T20:21:41;101392.75;;;14.42;100.00
20444;BME280;10381;53.730;10.010;2022-09-03T20:30:09;101405.16;;;14.14;100.00
20444;BME280;10381;53.730;10.010;2022-09-03T20:34:42;101407.84;;;14.14;100.00
20444;BME280;10381;53.730;10.010;2022-09-03T20:38:58;101408.81;;;14.22;100.00
20444;BME280;10381;53.730;10.010;2022-09-03T20:51:08;101406.13;;;14.32;100.00
20444;BME280;10381;53.730;10.010;2022-09-03T20:55:19;101404.16;;;14.34;100.00
20444;BME280;10381;53.730;10.010;2022-09-03T20:59:33;101404.84;;;14.36;100.00
20444;BME280;10381;53.730;10.010;2022-09-03T21:03:57;101410.75;;;14.30;100.00
20444;BME280;10381;53.730;10.010;2022-09-03T21:12:41;101418.03;;;14.28;100.00
20444;BME280;10381;53.730;10.010;2022-09-03T21:16:58;101411.47;;;14.22;100.00
20444;BME280;10381;53.730;10.010;2022-09-03T21:25:17;101404.66;;;14.00;100.00
20444;BME280;10381;53.730;10.010;2022-09-03T21:29:28;101407.44;;;13.99;100.00
20444;BME280;10381;53.730;10.010;2022-09-03T21:33:32;101412.06;;;13.97;100.00
20444;BME280;10381;53.730;10.010;2022-09-03T21:37:36;101422.88;;;13.95;100.00
20444;BME280;10381;53.730;10.010;2022-09-03T21:41:54;101424.84;;;13.93;100.00
20444;BME280;10381;53.730;10.010;2022-09-03T21:46:03;101432.00;;;13.93;100.00
20444;BME280;10381;53.730;10.010;2022-09-03T21:50:19;101426.41;;;13.86;100.00
20444;BME280;10381;53.730;10.010;2022-09-03T21:54:38;101421.06;;;13.76;100.00
20444;BME280;10381;53.730;10.010;2022-09-03T22:03:00;101416.69;;;13.95;100.00
20444;BME280;10381;53.730;10.010;2022-09-03T22:07:13;101429.88;;;13.87;100.00
20444;BME280;10381;53.730;10.010;2022-09-03T22:15:24;101432.97;;;13.72;100.00
20444;BME280;10381;53.730;10.010;2022-09-03T22:19:24;101438.03;;;13.66;100.00
20444;BME280;10381;53.730;10.010;2022-09-03T22:23:33;101433.09;;;13.51;100.00
20444;BME280;10381;53.730;10.010;2022-09-03T22:27:46;101433.69;;;13.45;100.00
20444;BME280;10381;53.730;10.010;2022-09-03T22:49:21;101424.97;;;12.93;100.00
20444;BME280;10381;53.730;10.010;2022-09-03T22:58:05;101428.88;;;12.89;100.00
20444;BME280;10381;53.730;10.010;2022-09-03T23:06:24;101434.56;;;12.74;100.00
20444;BME280;10381;53.730;10.010;2022-09-03T23:10:32;101435.34;;;12.55;100.00
20444;BME280;10381;53.730;10.010;2022-09-03T23:14:36;101439.03;;;12.43;100.00
20444;BME280;10381;53.730;10.010;2022-09-03T23:18:43;101442.34;;;12.35;100.00
20444;BME280;10381;53.730;10.010;2022-09-03T23:22:51;101436.88;;;12.27;100.00
20444;BME280;10381;53.730;10.010;2022-09-03T23:26:59;101442.56;;;12.23;100.00
20444;BME280;10381;53.730;10.010;2022-09-03T23:31:14;101441.13;;;12.19;100.00
20444;BME280;10381;53.730;10.010;2022-09-03T23:35:16;101448.09;;;12.10;100.00
20444;BME280;10381;53.730;10.010;2022-09-03T23:39:27;101441.34;;;12.06;100.00
20444;BME280;10381;53.730;10.010;2022-09-03T23:52:30;101450.91;;;11.97;100.00
20444;BME280;10381;53.730;10.010;2022-09-03T23:56:51;101451.44;;;11.91;100.00
